Terminal Aerodrome Forecast
Issued by NWS Des Moines, IA

Home | Current Version | Previous Version | Text Only | Print | Product List | Glossary On
Versions: 1 2 3 4 5 6 7 8 9 10 11 12 13 14 15 16 17 18 19 20 21 22 23
000
FTUS43 KDMX 111727
TAFALO
TAF
KALO 111727Z 1118/1218 14015KT P6SM BKN120
     FM120000 15007KT P6SM SCT030 BKN050
     FM121000 14004KT P6SM VCTS SCT035CB BKN120
     FM121400 VRB03KT 5SM -TSRA BR BKN025CB OVC090=

USA.gov is the U.S. government's official web portal to all federal, state and local government web resources and services.